Time;durP1;ratioP1;P1;durP2;ratioP2;P2;SDS_P1;SDS_P2;PMS_P1;PMS_P2;Temp;Humidity;BMP_temperature;BMP_pressure;BME280_temperature;BME280_humidity;BME280_pressure;Samples;Min_cycle;Max_cycle;Signal;HPM_P1;HPM_P2
2024/01/17 00:00:21;;;;;;;9.90;9.40;;;;;;;;;;5021855;28;20029;-53
2024/01/17 00:02:46;;;;;;;10.15;9.65;;;;;;;;;;5033845;28;20036;-54
2024/01/17 00:05:12;;;;;;;11.40;10.80;;;;;;;;;;5034101;28;20477;-53
2024/01/17 00:07:37;;;;;;;10.60;10.10;;;;;;;;;;5037962;28;20384;-53
2024/01/17 00:10:03;;;;;;;10.00;9.50;;;;;;;;;;5037145;28;20086;-56
2024/01/17 00:12:29;;;;;;;10.15;9.65;;;;;;;;;;5030484;28;20029;-56
2024/01/17 00:14:54;;;;;;;10.70;10.15;;;;;;;;;;5033490;28;20026;-56
2024/01/17 00:17:20;;;;;;;9.98;9.48;;;;;;;;;;5034198;28;20031;-56
2024/01/17 00:19:45;;;;;;;10.40;9.90;;;;;;;;;;5034617;28;20033;-57
2024/01/17 00:22:11;;;;;;;10.18;9.68;;;;;;;;;;5030278;28;20067;-56
2024/01/17 00:24:36;;;;;;;9.90;9.40;;;;;;;;;;5027832;28;20042;-54
2024/01/17 00:27:04;;;;;;;11.02;10.43;;;;;;;;;;5033958;28;20759;-56
2024/01/17 00:29:30;;;;;;;10.13;9.63;;;;;;;;;;5029479;28;20018;-54
2024/01/17 00:31:56;;;;;;;10.52;10.02;;;;;;;;;;5025249;28;20535;-57
2024/01/17 00:34:21;;;;;;;10.20;9.70;;;;;;;;;;5031839;28;20033;-56
2024/01/17 00:36:46;;;;;;;10.27;9.77;;;;;;;;;;5039609;28;20025;-57
2024/01/17 00:39:13;;;;;;;10.90;10.30;;;;;;;;;;5029368;28;20025;-54
2024/01/17 00:41:39;;;;;;;11.27;10.68;;;;;;;;;;5026148;28;20061;-56
2024/01/17 00:44:04;;;;;;;10.20;9.70;;;;;;;;;;5030136;28;20052;-56
2024/01/17 00:46:30;;;;;;;9.93;9.43;;;;;;;;;;5033086;28;20442;-56
2024/01/17 00:48:55;;;;;;;10.15;9.65;;;;;;;;;;5027216;28;20401;-54
2024/01/17 00:51:21;;;;;;;11.70;11.02;;;;;;;;;;5025749;28;20116;-54
2024/01/17 00:53:46;;;;;;;10.55;10.02;;;;;;;;;;5032149;28;20022;-55
2024/01/17 00:56:12;;;;;;;10.30;9.80;;;;;;;;;;5028905;28;20489;-56
2024/01/17 00:58:37;;;;;;;9.93;9.43;;;;;;;;;;5032050;28;20084;-54
2024/01/17 01:01:02;;;;;;;10.18;9.68;;;;;;;;;;5037743;28;20025;-56
2024/01/17 01:03:28;;;;;;;9.98;9.48;;;;;;;;;;5030412;28;20029;-56
2024/01/17 01:05:53;;;;;;;10.40;9.90;;;;;;;;;;5031526;28;20059;-56
2024/01/17 01:08:18;;;;;;;10.30;9.80;;;;;;;;;;5031920;28;20013;-54
2024/01/17 01:10:44;;;;;;;9.90;9.40;;;;;;;;;;5028002;28;20089;-57
2024/01/17 01:13:09;;;;;;;10.13;9.63;;;;;;;;;;5032985;28;20045;-55
2024/01/17 01:15:34;;;;;;;9.77;9.30;;;;;;;;;;5033992;28;20103;-57
2024/01/17 01:18:00;;;;;;;10.35;9.85;;;;;;;;;;5038451;28;20095;-57
2024/01/17 01:20:25;;;;;;;10.10;9.60;;;;;;;;;;5032645;28;20088;-55
2024/01/17 01:22:50;;;;;;;9.90;9.40;;;;;;;;;;5032701;28;20259;-57
2024/01/17 01:25:16;;;;;;;9.73;9.23;;;;;;;;;;5029162;28;20021;-56
2024/01/17 01:27:41;;;;;;;10.23;9.73;;;;;;;;;;5033708;28;20036;-57
2024/01/17 01:30:07;;;;;;;10.10;9.60;;;;;;;;;;5026421;28;20030;-56
2024/01/17 01:32:32;;;;;;;10.32;9.82;;;;;;;;;;5030090;28;20028;-58
2024/01/17 01:34:57;;;;;;;9.43;9.02;;;;;;;;;;5040044;28;20031;-57
2024/01/17 01:37:23;;;;;;;9.82;9.32;;;;;;;;;;5033957;28;20455;-56
2024/01/17 01:39:49;;;;;;;9.27;8.88;;;;;;;;;;5030870;28;20025;-54
2024/01/17 01:42:14;;;;;;;10.80;10.20;;;;;;;;;;5026186;28;20091;-57
2024/01/17 01:44:40;;;;;;;10.27;9.77;;;;;;;;;;5028814;28;20448;-56
2024/01/17 01:47:07;;;;;;;10.30;9.80;;;;;;;;;;5023460;28;20036;-54
2024/01/17 01:49:32;;;;;;;10.35;9.82;;;;;;;;;;5022591;28;20033;-56
2024/01/17 01:51:58;;;;;;;9.50;9.10;;;;;;;;;;5025203;28;20029;-55
2024/01/17 01:54:24;;;;;;;9.85;9.35;;;;;;;;;;5022867;28;20025;-58
2024/01/17 01:56:50;;;;;;;10.57;9.98;;;;;;;;;;5029554;28;20463;-56
2024/01/17 01:59:17;;;;;;;9.63;9.13;;;;;;;;;;5028233;28;20785;-56
2024/01/17 02:01:42;;;;;;;9.68;9.18;;;;;;;;;;5022590;28;20508;-57
2024/01/17 02:04:07;;;;;;;10.18;9.68;;;;;;;;;;5024359;28;20033;-55
2024/01/17 02:06:35;;;;;;;9.52;9.10;;;;;;;;;;5014973;28;20179;-57
2024/01/17 02:09:01;;;;;;;10.43;9.90;;;;;;;;;;5023598;28;20022;-51
2024/01/17 02:11:30;;;;;;;10.00;9.50;;;;;;;;;;5025190;28;20366;-58
2024/01/17 02:13:56;;;;;;;9.45;9.05;;;;;;;;;;5029600;28;20106;-55
2024/01/17 02:16:23;;;;;;;10.48;9.98;;;;;;;;;;5033326;28;20049;-55
2024/01/17 02:18:49;;;;;;;9.50;9.05;;;;;;;;;;5027293;28;20054;-56
2024/01/17 02:21:15;;;;;;;10.43;9.93;;;;;;;;;;5027188;28;20036;-55
2024/01/17 02:23:40;;;;;;;9.90;9.40;;;;;;;;;;5024049;28;20045;-56
2024/01/17 02:26:05;;;;;;;9.98;9.48;;;;;;;;;;5027003;28;20022;-56
2024/01/17 02:28:31;;;;;;;9.93;9.43;;;;;;;;;;5026442;28;20040;-55
2024/01/17 02:30:57;;;;;;;9.32;8.93;;;;;;;;;;5028684;28;20029;-56
2024/01/17 02:33:22;;;;;;;10.13;9.63;;;;;;;;;;5025969;28;20481;-56
2024/01/17 02:35:47;;;;;;;10.18;9.68;;;;;;;;;;5024245;28;20417;-56
2024/01/17 02:38:13;;;;;;;10.30;9.80;;;;;;;;;;5029124;28;20032;-54
2024/01/17 02:40:38;;;;;;;11.25;10.65;;;;;;;;;;5025414;28;20041;-56
2024/01/17 02:43:04;;;;;;;10.80;10.25;;;;;;;;;;5029632;28;20022;-54
2024/01/17 02:45:30;;;;;;;10.88;10.35;;;;;;;;;;5019439;28;20029;-51
2024/01/17 02:47:55;;;;;;;11.43;10.82;;;;;;;;;;5030930;28;20363;-51
2024/01/17 02:50:21;;;;;;;10.52;10.02;;;;;;;;;;5028882;28;20030;-51
2024/01/17 02:52:47;;;;;;;10.77;10.27;;;;;;;;;;5025545;28;20673;-55
2024/01/17 02:55:13;;;;;;;11.13;10.55;;;;;;;;;;5017940;28;20034;-53
2024/01/17 02:57:39;;;;;;;11.50;10.90;;;;;;;;;;5024814;28;20487;-56
2024/01/17 03:00:05;;;;;;;11.82;11.23;;;;;;;;;;5030102;28;20036;-55
2024/01/17 03:02:31;;;;;;;10.80;10.30;;;;;;;;;;5021634;28;20088;-53
2024/01/17 03:04:56;;;;;;;11.00;10.50;;;;;;;;;;5027214;28;20021;-55
2024/01/17 03:07:22;;;;;;;10.45;9.95;;;;;;;;;;5025622;28;20037;-53
2024/01/17 03:09:47;;;;;;;10.52;10.02;;;;;;;;;;5026600;28;22425;-54
2024/01/17 03:12:12;;;;;;;11.10;10.50;;;;;;;;;;5026124;28;20080;-57
2024/01/17 03:14:38;;;;;;;10.27;9.77;;;;;;;;;;5028018;28;20509;-56
2024/01/17 03:17:03;;;;;;;11.40;10.80;;;;;;;;;;5023037;28;20548;-56
2024/01/17 03:19:28;;;;;;;10.73;10.15;;;;;;;;;;5024226;28;20044;-55
2024/01/17 03:21:54;;;;;;;11.20;10.60;;;;;;;;;;5029536;28;20164;-55
2024/01/17 03:24:19;;;;;;;10.35;9.85;;;;;;;;;;5026413;28;20025;-55
2024/01/17 03:26:45;;;;;;;10.45;9.93;;;;;;;;;;5025092;28;20108;-53
2024/01/17 03:29:10;;;;;;;9.88;9.38;;;;;;;;;;5030709;28;20033;-55
2024/01/17 03:31:36;;;;;;;10.00;9.50;;;;;;;;;;5017769;28;20026;-56
2024/01/17 03:34:01;;;;;;;10.93;10.32;;;;;;;;;;5026719;28;20033;-54
2024/01/17 03:36:26;;;;;;;10.32;9.82;;;;;;;;;;5023087;28;20036;-58
2024/01/17 03:38:52;;;;;;;10.23;9.73;;;;;;;;;;5027793;28;20021;-56
2024/01/17 03:41:17;;;;;;;10.55;10.05;;;;;;;;;;5032165;28;20122;-56
2024/01/17 03:43:43;;;;;;;10.45;9.95;;;;;;;;;;5031730;28;20026;-57
2024/01/17 03:46:09;;;;;;;10.40;9.90;;;;;;;;;;5026317;28;20458;-58
2024/01/17 03:48:34;;;;;;;10.70;10.20;;;;;;;;;;5028756;28;20436;-58
2024/01/17 03:50:59;;;;;;;10.68;10.18;;;;;;;;;;5024743;28;20100;-55
2024/01/17 03:53:25;;;;;;;10.57;10.07;;;;;;;;;;5028348;28;20018;-56
2024/01/17 03:55:50;;;;;;;11.65;10.98;;;;;;;;;;5023426;28;20029;-54
2024/01/17 03:58:15;;;;;;;10.63;10.13;;;;;;;;;;5019483;28;20456;-56
2024/01/17 04:00:41;;;;;;;10.60;10.10;;;;;;;;;;5028674;28;20126;-57
2024/01/17 04:03:10;;;;;;;11.43;10.82;;;;;;;;;;5028673;28;20030;-57
2024/01/17 04:05:35;;;;;;;11.27;10.68;;;;;;;;;;5035215;28;20022;-55
2024/01/17 04:08:00;;;;;;;10.27;9.77;;;;;;;;;;5024616;28;20021;-57
2024/01/17 04:10:26;;;;;;;10.68;10.18;;;;;;;;;;5034493;28;20036;-57
2024/01/17 04:12:51;;;;;;;11.25;10.65;;;;;;;;;;5031515;28;20493;-59
2024/01/17 04:15:16;;;;;;;11.48;10.88;;;;;;;;;;5034166;28;20017;-56
2024/01/17 04:17:42;;;;;;;11.23;10.63;;;;;;;;;;5033160;28;20037;-56
2024/01/17 04:20:07;;;;;;;11.45;10.85;;;;;;;;;;5026693;28;20032;-57
2024/01/17 04:22:34;;;;;;;10.73;10.23;;;;;;;;;;5034865;28;20083;-57
2024/01/17 04:25:00;;;;;;;10.68;10.18;;;;;;;;;;5033162;28;20040;-57
2024/01/17 04:27:25;;;;;;;11.35;10.75;;;;;;;;;;5026001;28;20064;-56
2024/01/17 04:29:50;;;;;;;11.02;10.43;;;;;;;;;;5025413;28;20054;-58
2024/01/17 04:32:16;;;;;;;10.68;10.18;;;;;;;;;;5021860;28;20108;-54
2024/01/17 04:34:41;;;;;;;11.38;10.77;;;;;;;;;;5029149;28;20108;-57
2024/01/17 04:37:07;;;;;;;12.20;11.52;;;;;;;;;;5039249;28;20026;-57
2024/01/17 04:39:32;;;;;;;11.95;11.35;;;;;;;;;;5031728;28;20018;-56
2024/01/17 04:41:59;;;;;;;12.07;11.38;;;;;;;;;;5031310;28;20029;-58
2024/01/17 04:44:25;;;;;;;11.57;10.98;;;;;;;;;;5028975;28;20049;-56
2024/01/17 04:46:50;;;;;;;11.00;10.45;;;;;;;;;;5030326;28;20057;-55
2024/01/17 04:49:16;;;;;;;11.15;10.55;;;;;;;;;;5025817;28;20455;-56
2024/01/17 04:51:42;;;;;;;11.20;10.60;;;;;;;;;;5024147;28;20099;-56
2024/01/17 04:54:08;;;;;;;11.13;10.52;;;;;;;;;;5024998;28;20408;-56
2024/01/17 04:56:34;;;;;;;11.00;10.40;;;;;;;;;;5025540;28;20032;-56
2024/01/17 04:58:59;;;;;;;11.32;10.73;;;;;;;;;;5034107;28;20024;-53
2024/01/17 05:01:25;;;;;;;11.27;10.68;;;;;;;;;;5027637;28;20025;-56
2024/01/17 05:03:50;;;;;;;11.60;10.93;;;;;;;;;;5023721;28;20059;-57
2024/01/17 05:06:15;;;;;;;11.15;10.55;;;;;;;;;;5027815;28;20078;-56
2024/01/17 05:08:41;;;;;;;10.60;10.10;;;;;;;;;;5031624;28;20112;-57
2024/01/17 05:11:06;;;;;;;11.27;10.68;;;;;;;;;;5029138;28;20041;-58
2024/01/17 05:13:31;;;;;;;10.68;10.18;;;;;;;;;;5029534;28;20025;-58
2024/01/17 05:15:57;;;;;;;10.57;10.07;;;;;;;;;;5025361;28;20029;-56
2024/01/17 05:18:22;;;;;;;10.98;10.38;;;;;;;;;;5031464;28;20045;-55
2024/01/17 05:20:47;;;;;;;11.23;10.63;;;;;;;;;;5022779;28;20033;-52
2024/01/17 05:23:13;;;;;;;10.10;9.60;;;;;;;;;;5025947;28;20104;-54
2024/01/17 05:25:38;;;;;;;10.43;9.93;;;;;;;;;;5032313;28;20071;-56
2024/01/17 05:28:06;;;;;;;11.63;11.02;;;;;;;;;;5030364;28;20022;-57
2024/01/17 05:30:31;;;;;;;11.25;10.65;;;;;;;;;;5029941;28;20025;-58
2024/01/17 05:32:56;;;;;;;11.00;10.40;;;;;;;;;;5028624;28;20020;-55
2024/01/17 05:35:22;;;;;;;11.07;10.48;;;;;;;;;;5033285;28;20511;-57
2024/01/17 05:37:47;;;;;;;11.20;10.60;;;;;;;;;;5026416;28;20029;-58
2024/01/17 05:40:13;;;;;;;10.73;10.23;;;;;;;;;;5038387;28;20052;-55
2024/01/17 05:42:39;;;;;;;12.20;11.48;;;;;;;;;;5032950;28;20029;-56
2024/01/17 05:45:05;;;;;;;11.75;11.05;;;;;;;;;;5032868;28;20381;-56
2024/01/17 05:47:31;;;;;;;10.40;9.90;;;;;;;;;;5027918;28;20025;-57
2024/01/17 05:49:57;;;;;;;10.85;10.25;;;;;;;;;;5032001;28;20033;-57
2024/01/17 05:52:22;;;;;;;11.30;10.70;;;;;;;;;;5032995;28;20048;-57
2024/01/17 05:54:48;;;;;;;11.20;10.60;;;;;;;;;;5035768;28;20588;-58
2024/01/17 05:57:13;;;;;;;13.07;12.25;;;;;;;;;;5031040;28;20697;-58
2024/01/17 05:59:38;;;;;;;12.13;11.43;;;;;;;;;;5028800;28;20013;-58
2024/01/17 06:02:05;;;;;;;10.60;10.10;;;;;;;;;;5026836;28;20030;-59
2024/01/17 06:04:30;;;;;;;10.73;10.20;;;;;;;;;;5028595;28;20450;-54
2024/01/17 06:06:55;;;;;;;11.20;10.60;;;;;;;;;;5029700;28;20109;-58
2024/01/17 06:09:21;;;;;;;11.82;11.13;;;;;;;;;;5026232;28;20060;-57
2024/01/17 06:11:46;;;;;;;11.40;10.80;;;;;;;;;;5024706;28;20079;-57
2024/01/17 06:14:12;;;;;;;10.07;9.57;;;;;;;;;;5029535;28;20057;-58
2024/01/17 06:16:37;;;;;;;10.25;9.73;;;;;;;;;;5030352;28;20066;-60
2024/01/17 06:19:02;;;;;;;11.38;10.68;;;;;;;;;;5025171;28;20053;-57
2024/01/17 06:21:28;;;;;;;10.93;10.32;;;;;;;;;;5026496;28;20033;-55
2024/01/17 06:23:53;;;;;;;10.32;9.80;;;;;;;;;;5028615;28;20038;-56
2024/01/17 06:26:19;;;;;;;11.70;11.00;;;;;;;;;;5020910;28;20029;-58
2024/01/17 06:28:44;;;;;;;10.45;9.93;;;;;;;;;;5027925;28;20485;-56
2024/01/17 06:31:09;;;;;;;10.20;9.70;;;;;;;;;;5026004;28;20032;-57
2024/01/17 06:33:35;;;;;;;11.52;10.85;;;;;;;;;;5023867;28;20514;-57
2024/01/17 06:36:00;;;;;;;11.25;10.65;;;;;;;;;;5027285;28;20017;-58
2024/01/17 06:38:25;;;;;;;10.15;9.65;;;;;;;;;;5029858;28;20108;-58
2024/01/17 06:40:51;;;;;;;10.05;9.55;;;;;;;;;;5027477;28;20033;-57
2024/01/17 06:43:16;;;;;;;9.27;8.88;;;;;;;;;;5027950;28;20028;-57
2024/01/17 06:45:42;;;;;;;9.25;8.80;;;;;;;;;;5023296;28;20032;-55
2024/01/17 06:48:07;;;;;;;9.52;9.02;;;;;;;;;;5024144;28;20048;-56
2024/01/17 06:50:32;;;;;;;9.93;9.43;;;;;;;;;;5027825;28;20035;-57
2024/01/17 06:52:58;;;;;;;9.23;8.82;;;;;;;;;;5028842;28;20021;-57
2024/01/17 06:55:23;;;;;;;9.85;9.35;;;;;;;;;;5023181;28;20033;-58
2024/01/17 06:57:48;;;;;;;9.70;9.30;;;;;;;;;;5026637;28;20080;-58
2024/01/17 07:00:14;;;;;;;10.70;10.20;;;;;;;;;;5028888;28;20029;-57
2024/01/17 07:02:40;;;;;;;9.50;9.10;;;;;;;;;;5028347;28;20139;-55
2024/01/17 07:05:05;;;;;;;10.77;10.27;;;;;;;;;;5025931;28;20029;-58
2024/01/17 07:07:31;;;;;;;10.43;9.93;;;;;;;;;;5027584;28;20040;-57
2024/01/17 07:09:56;;;;;;;11.45;10.95;;;;;;;;;;5027777;28;20535;-58
2024/01/17 07:12:21;;;;;;;11.55;11.05;;;;;;;;;;5024678;28;20129;-57
2024/01/17 07:14:48;;;;;;;11.10;10.60;;;;;;;;;;5023010;28;20155;-58
2024/01/17 07:17:13;;;;;;;13.15;12.45;;;;;;;;;;5021108;28;20060;-59
2024/01/17 07:19:39;;;;;;;12.18;11.57;;;;;;;;;;5020235;28;20505;-57
2024/01/17 07:22:06;;;;;;;12.00;11.40;;;;;;;;;;5027942;28;20568;-57
2024/01/17 07:24:31;;;;;;;12.35;11.75;;;;;;;;;;5017317;28;20026;-58
2024/01/17 07:26:56;;;;;;;11.95;11.35;;;;;;;;;;5026016;28;20388;-59
2024/01/17 07:29:22;;;;;;;12.95;12.25;;;;;;;;;;5023158;28;20034;-59
2024/01/17 07:31:47;;;;;;;11.40;10.90;;;;;;;;;;5019502;28;20048;-57
2024/01/17 07:34:12;;;;;;;11.07;10.57;;;;;;;;;;5029688;28;20100;-57
2024/01/17 07:36:38;;;;;;;11.43;10.85;;;;;;;;;;5025029;28;20500;-57
2024/01/17 07:39:04;;;;;;;11.10;10.60;;;;;;;;;;5031481;28;20030;-57
2024/01/17 07:41:30;;;;;;;11.30;10.80;;;;;;;;;;5020936;28;20034;-60
2024/01/17 07:43:55;;;;;;;11.98;11.38;;;;;;;;;;5026814;28;20499;-58
2024/01/17 07:46:21;;;;;;;12.07;11.48;;;;;;;;;;5027670;28;20388;-56
2024/01/17 07:48:46;;;;;;;12.25;11.65;;;;;;;;;;5025418;28;20064;-57
2024/01/17 07:51:12;;;;;;;17.42;16.33;;;;;;;;;;5016538;28;20112;-62
2024/01/17 07:53:38;;;;;;;11.93;11.32;;;;;;;;;;5022059;28;20051;-63
2024/01/17 07:56:04;;;;;;;12.50;11.80;;;;;;;;;;5026826;28;20088;-63
2024/01/17 07:58:29;;;;;;;12.13;11.52;;;;;;;;;;5029276;28;20056;-62
2024/01/17 08:00:55;;;;;;;11.57;10.98;;;;;;;;;;5036207;28;20457;-63
2024/01/17 08:03:20;;;;;;;10.48;9.98;;;;;;;;;;5041325;28;20108;-63
2024/01/17 08:05:46;;;;;;;10.35;9.85;;;;;;;;;;5031559;28;20037;-63
2024/01/17 08:08:11;;;;;;;10.43;9.93;;;;;;;;;;5025170;28;20036;-64
2024/01/17 08:10:37;;;;;;;9.80;9.40;;;;;;;;;;5029928;28;20037;-63
2024/01/17 08:13:04;;;;;;;11.20;10.70;;;;;;;;;;5038048;28;20376;-60
2024/01/17 08:15:29;;;;;;;11.63;11.13;;;;;;;;;;5028865;28;20013;-62
2024/01/17 08:17:55;;;;;;;11.15;10.65;;;;;;;;;;5029615;28;20042;-61
2024/01/17 08:20:20;;;;;;;11.35;10.85;;;;;;;;;;5033152;28;20108;-62
2024/01/17 08:22:46;;;;;;;11.23;10.73;;;;;;;;;;5028737;28;20098;-63
2024/01/17 08:25:11;;;;;;;11.27;10.77;;;;;;;;;;5035445;28;20554;-63
2024/01/17 08:27:37;;;;;;;12.15;11.55;;;;;;;;;;5036637;28;20493;-63
2024/01/17 08:30:04;;;;;;;11.30;10.80;;;;;;;;;;5026628;28;20033;-62
2024/01/17 08:32:29;;;;;;;11.30;10.80;;;;;;;;;;5022568;28;20057;-63
2024/01/17 08:34:55;;;;;;;11.48;10.98;;;;;;;;;;5034237;28;20116;-64
2024/01/17 08:37:22;;;;;;;11.50;11.00;;;;;;;;;;5032856;28;20029;-63
2024/01/17 08:39:47;;;;;;;12.93;12.32;;;;;;;;;;5024895;28;20362;-62
2024/01/17 08:42:13;;;;;;;11.75;11.25;;;;;;;;;;5023270;28;20029;-63
2024/01/17 08:44:44;;;;;;;11.73;11.23;;;;;;;;;;5028197;28;20064;-64
2024/01/17 08:47:10;;;;;;;11.70;11.20;;;;;;;;;;5019818;28;20026;-64
2024/01/17 08:49:39;;;;;;;12.38;11.77;;;;;;;;;;5031558;28;20604;-64
2024/01/17 08:52:05;;;;;;;11.40;10.90;;;;;;;;;;5030905;28;20063;-64
2024/01/17 08:54:31;;;;;;;11.25;10.75;;;;;;;;;;5031518;28;20053;-64
2024/01/17 08:56:56;;;;;;;11.68;11.18;;;;;;;;;;5025289;28;20119;-62
2024/01/17 08:59:21;;;;;;;11.85;11.32;;;;;;;;;;5033896;28;20523;-62
2024/01/17 09:01:46;;;;;;;11.77;11.27;;;;;;;;;;5039485;28;20017;-62
2024/01/17 09:04:12;;;;;;;12.23;11.63;;;;;;;;;;5031308;28;20041;-64
2024/01/17 09:06:37;;;;;;;11.60;11.10;;;;;;;;;;5034017;28;20021;-63
2024/01/17 09:09:03;;;;;;;11.30;10.80;;;;;;;;;;5030264;28;20025;-64
2024/01/17 09:11:29;;;;;;;11.27;10.77;;;;;;;;;;5029858;28;20034;-64
2024/01/17 09:13:55;;;;;;;11.13;10.63;;;;;;;;;;5033952;28;20025;-65
2024/01/17 09:16:21;;;;;;;11.32;10.82;;;;;;;;;;5031030;28;20124;-64
2024/01/17 09:18:46;;;;;;;12.48;11.88;;;;;;;;;;5028292;28;20557;-63
2024/01/17 09:21:11;;;;;;;11.15;10.65;;;;;;;;;;5029499;28;20038;-62
2024/01/17 09:23:37;;;;;;;12.15;11.55;;;;;;;;;;5022923;28;20095;-62
2024/01/17 09:26:03;;;;;;;12.40;11.80;;;;;;;;;;5021595;28;20040;-63
2024/01/17 09:28:28;;;;;;;12.70;12.10;;;;;;;;;;5021676;28;20108;-61
2024/01/17 09:30:54;;;;;;;11.52;11.02;;;;;;;;;;5023536;28;20025;-63
2024/01/17 09:33:19;;;;;;;11.93;11.35;;;;;;;;;;5030711;28;20033;-65
2024/01/17 09:35:44;;;;;;;11.52;11.02;;;;;;;;;;5018343;28;20033;-61
2024/01/17 09:38:12;;;;;;;11.73;11.23;;;;;;;;;;5024310;28;20500;-65
2024/01/17 09:40:38;;;;;;;12.20;11.60;;;;;;;;;;5033992;28;20023;-63
2024/01/17 09:43:05;;;;;;;11.70;11.20;;;;;;;;;;5032137;28;20112;-64
2024/01/17 09:45:30;;;;;;;12.07;11.48;;;;;;;;;;5031026;28;20064;-63
2024/01/17 09:47:56;;;;;;;12.93;12.23;;;;;;;;;;5029807;28;20056;-64
2024/01/17 09:50:21;;;;;;;11.68;11.13;;;;;;;;;;5024498;28;20917;-63
2024/01/17 09:52:48;;;;;;;12.15;11.55;;;;;;;;;;5013659;28;20034;-65
2024/01/17 09:55:15;;;;;;;13.35;12.65;;;;;;;;;;5019517;28;20069;-64
2024/01/17 09:57:44;;;;;;;14.20;13.40;;;;;;;;;;5013910;28;20765;-65
2024/01/17 10:00:10;;;;;;;13.00;12.30;;;;;;;;;;5026431;28;20421;-64
2024/01/17 10:02:36;;;;;;;11.85;11.25;;;;;;;;;;5033222;28;20022;-65
2024/01/17 10:05:04;;;;;;;12.90;12.20;;;;;;;;;;5022548;28;20083;-66
2024/01/17 10:07:29;;;;;;;11.63;11.02;;;;;;;;;;5032870;28;20049;-64
2024/01/17 10:09:54;;;;;;;11.63;11.02;;;;;;;;;;5030521;28;20061;-66
2024/01/17 10:12:20;;;;;;;11.88;11.27;;;;;;;;;;5030422;28;20076;-64
2024/01/17 10:14:46;;;;;;;12.15;11.50;;;;;;;;;;5036378;28;20017;-64
2024/01/17 10:17:11;;;;;;;11.50;10.90;;;;;;;;;;5028534;28;20018;-64
2024/01/17 10:19:37;;;;;;;11.68;11.07;;;;;;;;;;5031305;28;20028;-62
2024/01/17 10:22:06;;;;;;;11.70;11.10;;;;;;;;;;5028237;28;20090;-64
2024/01/17 10:24:32;;;;;;;11.25;10.65;;;;;;;;;;5031166;28;20091;-65
2024/01/17 10:26:57;;;;;;;11.52;10.93;;;;;;;;;;5032479;28;20104;-64
2024/01/17 10:29:23;;;;;;;10.77;10.27;;;;;;;;;;5030996;28;20097;-64
2024/01/17 10:31:48;;;;;;;11.07;10.57;;;;;;;;;;5031436;28;20101;-65
2024/01/17 10:34:13;;;;;;;10.93;10.32;;;;;;;;;;5029139;28;20036;-64
2024/01/17 10:36:39;;;;;;;10.95;10.45;;;;;;;;;;5030338;28;20024;-63
2024/01/17 10:39:05;;;;;;;11.38;10.77;;;;;;;;;;5032671;28;20010;-64
2024/01/17 10:41:31;;;;;;;12.10;11.40;;;;;;;;;;5037958;28;20021;-64
2024/01/17 10:43:57;;;;;;;10.63;10.13;;;;;;;;;;5031359;28;20017;-65
2024/01/17 10:46:23;;;;;;;10.90;10.40;;;;;;;;;;5031212;28;20033;-63
2024/01/17 10:48:49;;;;;;;12.15;11.45;;;;;;;;;;5038806;28;20036;-63
2024/01/17 10:51:22;;;;;;;12.18;11.50;;;;;;;;;;5029030;28;20028;-64
2024/01/17 10:53:48;;;;;;;11.68;11.07;;;;;;;;;;5022536;28;20543;-63
2024/01/17 10:56:16;;;;;;;11.85;11.25;;;;;;;;;;5026271;28;20036;-64
2024/01/17 10:58:44;;;;;;;11.80;11.20;;;;;;;;;;5029635;28;20014;-63
2024/01/17 11:01:14;;;;;;;12.27;11.57;;;;;;;;;;5033833;28;20028;-63
2024/01/17 11:03:39;;;;;;;12.52;11.82;;;;;;;;;;5019944;28;20101;-65
2024/01/17 11:06:05;;;;;;;12.73;12.02;;;;;;;;;;5024927;28;20109;-63
